sensor_id;sensor_type;location;lat;lon;timestamp;pressure;altitude;pressure_sealevel;temperature;humidity
19259;BME280;9763;48.780;9.212;2023-03-19T00:02:20;98075.13;;;15.91;41.10
19259;BME280;9763;48.780;9.212;2023-03-19T00:05:51;98070.56;;;15.93;41.22
19259;BME280;9763;48.780;9.212;2023-03-19T00:09:15;98064.47;;;15.92;41.10
19259;BME280;9763;48.780;9.212;2023-03-19T00:12:39;98074.16;;;15.92;40.79
19259;BME280;9763;48.780;9.212;2023-03-19T00:16:04;98070.69;;;15.91;40.96
19259;BME280;9763;48.780;9.212;2023-03-19T00:19:29;98073.31;;;15.91;41.38
19259;BME280;9763;48.780;9.212;2023-03-19T00:22:53;98074.28;;;15.90;41.59
19259;BME280;9763;48.780;9.212;2023-03-19T00:26:17;98076.22;;;15.88;41.22
19259;BME280;9763;48.780;9.212;2023-03-19T00:29:41;98078.31;;;15.84;41.58
19259;BME280;9763;48.780;9.212;2023-03-19T00:33:04;98087.16;;;15.83;41.07
19259;BME280;9763;48.780;9.212;2023-03-19T00:36:29;98088.13;;;15.82;41.48
19259;BME280;9763;48.780;9.212;2023-03-19T00:39:53;98092.56;;;15.82;41.78
19259;BME280;9763;48.780;9.212;2023-03-19T00:43:16;98088.13;;;15.82;41.88
19259;BME280;9763;48.780;9.212;2023-03-19T00:46:40;98082.22;;;15.80;41.18
19259;BME280;9763;48.780;9.212;2023-03-19T00:50:05;98084.28;;;15.77;41.38
19259;BME280;9763;48.780;9.212;2023-03-19T00:53:30;98092.59;;;15.72;41.97
19259;BME280;9763;48.780;9.212;2023-03-19T00:56:54;98090.09;;;15.71;41.78
19259;BME280;9763;48.780;9.212;2023-03-19T01:00:19;98092.88;;;15.69;41.79
19259;BME280;9763;48.780;9.212;2023-03-19T01:03:44;98092.88;;;15.69;41.50
19259;BME280;9763;48.780;9.212;2023-03-19T01:07:09;98093.69;;;15.70;41.76
19259;BME280;9763;48.780;9.212;2023-03-19T01:10:34;98094.00;;;15.67;41.59
19259;BME280;9763;48.780;9.212;2023-03-19T01:13:59;98093.44;;;15.63;42.06
19259;BME280;9763;48.780;9.212;2023-03-19T01:17:23;98103.25;;;15.71;42.11
19259;BME280;9763;48.780;9.212;2023-03-19T01:20:47;98096.06;;;15.73;41.83
19259;BME280;9763;48.780;9.212;2023-03-19T01:24:12;98099.09;;;15.78;42.42
19259;BME280;9763;48.780;9.212;2023-03-19T01:27:38;98105.72;;;15.82;42.30
19259;BME280;9763;48.780;9.212;2023-03-19T01:31:07;98113.34;;;15.85;42.26
19259;BME280;9763;48.780;9.212;2023-03-19T01:34:50;98118.47;;;15.87;41.85
19259;BME280;9763;48.780;9.212;2023-03-19T01:38:15;98118.34;;;15.88;42.29
19259;BME280;9763;48.780;9.212;2023-03-19T01:41:40;98126.38;;;15.87;42.05
19259;BME280;9763;48.780;9.212;2023-03-19T01:45:32;98130.94;;;15.84;42.18
19259;BME280;9763;48.780;9.212;2023-03-19T01:49:18;98130.09;;;15.84;42.15
19259;BME280;9763;48.780;9.212;2023-03-19T01:52:47;98134.41;;;15.85;42.07
19259;BME280;9763;48.780;9.212;2023-03-19T01:56:21;98145.78;;;15.85;42.35
19259;BME280;9763;48.780;9.212;2023-03-19T02:00:01;98143.97;;;15.86;42.25
19259;BME280;9763;48.780;9.212;2023-03-19T02:03:41;98132.88;;;15.82;42.63
19259;BME280;9763;48.780;9.212;2023-03-19T02:07:11;98143.69;;;15.89;42.09
19259;BME280;9763;48.780;9.212;2023-03-19T02:10:36;98147.72;;;15.93;42.27
19259;BME280;9763;48.780;9.212;2023-03-19T02:14:00;98139.38;;;15.98;42.32
19259;BME280;9763;48.780;9.212;2023-03-19T02:17:26;98146.59;;;16.05;42.56
19259;BME280;9763;48.780;9.212;2023-03-19T02:20:57;98142.84;;;16.08;42.29
19259;BME280;9763;48.780;9.212;2023-03-19T02:24:31;98147.00;;;16.10;42.62
19259;BME280;9763;48.780;9.212;2023-03-19T02:28:01;98148.53;;;16.13;42.35
19259;BME280;9763;48.780;9.212;2023-03-19T02:31:25;98156.00;;;15.98;43.45
19259;BME280;9763;48.780;9.212;2023-03-19T02:34:49;98150.63;;;15.80;45.07
19259;BME280;9763;48.780;9.212;2023-03-19T02:38:14;98159.34;;;15.62;45.95
19259;BME280;9763;48.780;9.212;2023-03-19T02:41:40;98164.69;;;15.50;45.92
19259;BME280;9763;48.780;9.212;2023-03-19T02:45:07;98142.25;;;15.46;45.40
19259;BME280;9763;48.780;9.212;2023-03-19T02:48:31;98140.06;;;15.42;45.38
19259;BME280;9763;48.780;9.212;2023-03-19T02:51:54;98145.19;;;15.43;45.79
19259;BME280;9763;48.780;9.212;2023-03-19T02:55:18;98149.47;;;15.44;46.00
19259;BME280;9763;48.780;9.212;2023-03-19T02:58:43;98158.03;;;15.46;45.74
19259;BME280;9763;48.780;9.212;2023-03-19T03:02:09;98151.69;;;15.49;45.72
19259;BME280;9763;48.780;9.212;2023-03-19T03:05:33;98164.56;;;15.52;45.72
19259;BME280;9763;48.780;9.212;2023-03-19T03:08:57;98155.72;;;15.53;46.24
19259;BME280;9763;48.780;9.212;2023-03-19T03:12:20;98144.63;;;15.49;46.63
19259;BME280;9763;48.780;9.212;2023-03-19T03:15:43;98160.97;;;15.43;46.34
19259;BME280;9763;48.780;9.212;2023-03-19T03:19:09;98165.38;;;15.33;47.37
19259;BME280;9763;48.780;9.212;2023-03-19T03:22:32;98171.16;;;15.27;47.24
19259;BME280;9763;48.780;9.212;2023-03-19T03:25:56;98168.91;;;15.23;47.45
19259;BME280;9763;48.780;9.212;2023-03-19T03:29:20;98166.16;;;15.24;47.10
19259;BME280;9763;48.780;9.212;2023-03-19T03:32:44;98158.72;;;15.29;47.28
19259;BME280;9763;48.780;9.212;2023-03-19T03:36:09;98164.53;;;15.33;47.17
19259;BME280;9763;48.780;9.212;2023-03-19T03:39:33;98156.50;;;15.34;46.68
19259;BME280;9763;48.780;9.212;2023-03-19T03:42:57;98159.69;;;15.38;47.11
19259;BME280;9763;48.780;9.212;2023-03-19T03:46:21;98163.97;;;15.39;46.99
19259;BME280;9763;48.780;9.212;2023-03-19T03:49:46;98168.81;;;15.34;47.68
19259;BME280;9763;48.780;9.212;2023-03-19T03:53:11;98176.03;;;15.32;47.26
19259;BME280;9763;48.780;9.212;2023-03-19T03:56:35;98172.25;;;15.25;47.46
19259;BME280;9763;48.780;9.212;2023-03-19T03:59:59;98175.06;;;15.33;47.61
19259;BME280;9763;48.780;9.212;2023-03-19T04:03:24;98187.50;;;15.31;47.01
19259;BME280;9763;48.780;9.212;2023-03-19T04:06:48;98184.31;;;15.27;47.29
19259;BME280;9763;48.780;9.212;2023-03-19T04:10:30;98185.13;;;15.28;47.57
19259;BME280;9763;48.780;9.212;2023-03-19T04:13:54;98189.44;;;15.29;47.75
19259;BME280;9763;48.780;9.212;2023-03-19T04:17:19;98185.84;;;15.30;47.34
19259;BME280;9763;48.780;9.212;2023-03-19T04:20:42;98201.50;;;15.31;47.39
19259;BME280;9763;48.780;9.212;2023-03-19T04:24:06;98191.09;;;15.30;47.89
19259;BME280;9763;48.780;9.212;2023-03-19T04:27:33;98186.50;;;15.22;47.34
19259;BME280;9763;48.780;9.212;2023-03-19T04:31:01;98198.28;;;15.28;47.88
19259;BME280;9763;48.780;9.212;2023-03-19T04:34:27;98199.13;;;15.28;47.21
19259;BME280;9763;48.780;9.212;2023-03-19T04:37:51;98199.38;;;15.25;47.56
19259;BME280;9763;48.780;9.212;2023-03-19T04:41:16;98197.00;;;15.22;48.12
19259;BME280;9763;48.780;9.212;2023-03-19T04:44:54;98205.72;;;15.23;48.18
19259;BME280;9763;48.780;9.212;2023-03-19T04:48:18;98208.94;;;15.26;48.18
19259;BME280;9763;48.780;9.212;2023-03-19T04:51:43;98204.50;;;15.27;47.75
19259;BME280;9763;48.780;9.212;2023-03-19T04:55:08;98219.31;;;15.28;47.91
19259;BME280;9763;48.780;9.212;2023-03-19T04:58:43;98208.94;;;15.26;47.65
19259;BME280;9763;48.780;9.212;2023-03-19T05:02:09;98178.81;;;15.00;48.57
19259;BME280;9763;48.780;9.212;2023-03-19T05:05:33;98221.94;;;15.18;48.13
19259;BME280;9763;48.780;9.212;2023-03-19T05:09:01;98224.25;;;15.11;48.46
19259;BME280;9763;48.780;9.212;2023-03-19T05:12:26;98228.00;;;15.09;48.80
19259;BME280;9763;48.780;9.212;2023-03-19T05:15:53;98225.50;;;15.07;49.01
19259;BME280;9763;48.780;9.212;2023-03-19T05:19:19;98236.13;;;15.06;48.74
19259;BME280;9763;48.780;9.212;2023-03-19T05:22:44;98219.63;;;14.94;49.31
19259;BME280;9763;48.780;9.212;2023-03-19T05:26:10;98242.22;;;15.06;49.13
19259;BME280;9763;48.780;9.212;2023-03-19T05:29:57;98236.13;;;15.06;48.93
19259;BME280;9763;48.780;9.212;2023-03-19T05:33:37;98239.59;;;15.06;49.34
19259;BME280;9763;48.780;9.212;2023-03-19T05:37:03;98230.88;;;15.06;48.83
19259;BME280;9763;48.780;9.212;2023-03-19T05:40:27;98237.22;;;15.03;49.21
19259;BME280;9763;48.780;9.212;2023-03-19T05:43:54;98233.19;;;14.99;48.91
19259;BME280;9763;48.780;9.212;2023-03-19T05:47:34;98249.50;;;14.93;49.45
19259;BME280;9763;48.780;9.212;2023-03-19T05:50:57;98247.50;;;14.86;50.04
19259;BME280;9763;48.780;9.212;2023-03-19T05:54:28;98240.72;;;14.83;50.05
19259;BME280;9763;48.780;9.212;2023-03-19T05:57:56;98246.69;;;14.85;49.74
19259;BME280;9763;48.780;9.212;2023-03-19T06:01:21;98252.38;;;14.90;49.81
19259;BME280;9763;48.780;9.212;2023-03-19T06:04:45;98256.13;;;14.97;49.65
19259;BME280;9763;48.780;9.212;2023-03-19T06:08:12;98261.84;;;15.02;50.02
19259;BME280;9763;48.780;9.212;2023-03-19T06:12:00;98264.09;;;15.07;49.96
19259;BME280;9763;48.780;9.212;2023-03-19T06:15:42;98262.72;;;15.12;50.04
19259;BME280;9763;48.780;9.212;2023-03-19T06:19:26;98268.53;;;15.16;49.72
19259;BME280;9763;48.780;9.212;2023-03-19T06:22:50;98268.41;;;15.18;49.81
19259;BME280;9763;48.780;9.212;2023-03-19T06:26:15;98271.88;;;15.18;50.03
19259;BME280;9763;48.780;9.212;2023-03-19T06:29:47;98272.84;;;15.17;49.55
19259;BME280;9763;48.780;9.212;2023-03-19T06:33:16;98284.19;;;15.18;49.96
19259;BME280;9763;48.780;9.212;2023-03-19T06:36:40;98275.22;;;15.20;49.92
19259;BME280;9763;48.780;9.212;2023-03-19T06:40:07;98273.84;;;15.26;49.72
19259;BME280;9763;48.780;9.212;2023-03-19T06:43:31;98274.41;;;15.29;50.13
19259;BME280;9763;48.780;9.212;2023-03-19T06:46:59;98281.88;;;15.34;49.85
19259;BME280;9763;48.780;9.212;2023-03-19T06:50:23;98268.47;;;15.37;50.34
19259;BME280;9763;48.780;9.212;2023-03-19T06:53:47;98274.56;;;15.37;50.11
19259;BME280;9763;48.780;9.212;2023-03-19T06:57:11;98275.41;;;15.38;50.48
19259;BME280;9763;48.780;9.212;2023-03-19T07:00:34;98270.59;;;15.43;50.12
19259;BME280;9763;48.780;9.212;2023-03-19T07:03:59;98276.00;;;15.51;50.30
19259;BME280;9763;48.780;9.212;2023-03-19T07:07:23;98267.34;;;15.60;50.39
19259;BME280;9763;48.780;9.212;2023-03-19T07:10:47;98253.22;;;15.61;49.65
19259;BME280;9763;48.780;9.212;2023-03-19T07:14:10;98277.09;;;15.79;49.65
19259;BME280;9763;48.780;9.212;2023-03-19T07:17:34;98271.97;;;15.87;49.67
19259;BME280;9763;48.780;9.212;2023-03-19T07:20:59;98277.13;;;15.98;49.52
19259;BME280;9763;48.780;9.212;2023-03-19T07:24:22;98276.44;;;16.06;49.64
19259;BME280;9763;48.780;9.212;2023-03-19T07:27:46;98278.78;;;16.09;49.97
19259;BME280;9763;48.780;9.212;2023-03-19T07:31:10;98282.69;;;16.14;49.52
19259;BME280;9763;48.780;9.212;2023-03-19T07:34:33;98283.91;;;16.20;49.98
19259;BME280;9763;48.780;9.212;2023-03-19T07:37:58;98281.97;;;16.22;49.79
19259;BME280;9763;48.780;9.212;2023-03-19T07:41:22;98290.31;;;16.27;49.24
19259;BME280;9763;48.780;9.212;2023-03-19T07:44:45;98290.19;;;16.29;49.45
19259;BME280;9763;48.780;9.212;2023-03-19T07:48:09;98295.00;;;16.33;49.59
19259;BME280;9763;48.780;9.212;2023-03-19T07:51:33;98290.03;;;16.40;49.61
19259;BME280;9763;48.780;9.212;2023-03-19T07:54:59;98294.03;;;16.44;49.37
19259;BME280;9763;48.780;9.212;2023-03-19T07:58:22;98304.16;;;16.48;49.21
19259;BME280;9763;48.780;9.212;2023-03-19T08:01:47;98296.53;;;16.55;49.34
19259;BME280;9763;48.780;9.212;2023-03-19T08:05:11;98297.91;;;16.59;49.29
19259;BME280;9763;48.780;9.212;2023-03-19T08:08:34;98295.59;;;16.66;49.42
19259;BME280;9763;48.780;9.212;2023-03-19T08:11:59;98290.59;;;16.72;49.78
19259;BME280;9763;48.780;9.212;2023-03-19T08:15:23;98296.00;;;16.71;49.33
19259;BME280;9763;48.780;9.212;2023-03-19T08:18:46;98299.19;;;16.74;49.76
19259;BME280;9763;48.780;9.212;2023-03-19T08:22:12;98298.19;;;16.85;49.71
19259;BME280;9763;48.780;9.212;2023-03-19T08:25:36;98299.09;;;17.03;49.41
19259;BME280;9763;48.780;9.212;2023-03-19T08:29:00;98296.16;;;17.16;49.43
19259;BME280;9763;48.780;9.212;2023-03-19T08:32:25;98295.31;;;17.25;49.60
19259;BME280;9763;48.780;9.212;2023-03-19T08:35:49;98295.00;;;17.28;49.54
19259;BME280;9763;48.780;9.212;2023-03-19T08:39:13;98303.75;;;17.38;48.75
19259;BME280;9763;48.780;9.212;2023-03-19T08:42:37;98295.78;;;17.48;48.86
19259;BME280;9763;48.780;9.212;2023-03-19T08:46:07;98302.94;;;17.65;49.13
19259;BME280;9763;48.780;9.212;2023-03-19T08:49:31;98301.63;;;17.79;48.50
19259;BME280;9763;48.780;9.212;2023-03-19T08:52:55;98297.78;;;17.91;49.04
19259;BME280;9763;48.780;9.212;2023-03-19T08:56:19;98304.53;;;18.03;48.29
19259;BME280;9763;48.780;9.212;2023-03-19T08:59:43;98303.47;;;18.14;49.06
19259;BME280;9763;48.780;9.212;2023-03-19T09:03:08;98305.59;;;18.28;48.19
19259;BME280;9763;48.780;9.212;2023-03-19T09:06:31;98303.81;;;18.46;48.72
19259;BME280;9763;48.780;9.212;2023-03-19T09:09:55;98313.63;;;18.72;47.82
19259;BME280;9763;48.780;9.212;2023-03-19T09:13:18;98316.63;;;18.94;47.75
19259;BME280;9763;48.780;9.212;2023-03-19T09:16:42;98315.00;;;19.27;47.93
19259;BME280;9763;48.780;9.212;2023-03-19T09:20:09;98310.72;;;20.02;47.52
19259;BME280;9763;48.780;9.212;2023-03-19T09:23:33;98305.00;;;20.96;47.34
19259;BME280;9763;48.780;9.212;2023-03-19T09:26:56;98306.41;;;21.55;46.78
19259;BME280;9763;48.780;9.212;2023-03-19T09:30:20;98309.78;;;22.19;45.68
19259;BME280;9763;48.780;9.212;2023-03-19T09:33:44;98302.09;;;22.70;45.07
19259;BME280;9763;48.780;9.212;2023-03-19T09:37:09;98292.53;;;22.98;45.43
19259;BME280;9763;48.780;9.212;2023-03-19T09:40:38;98297.75;;;23.29;44.80
19259;BME280;9763;48.780;9.212;2023-03-19T09:44:07;98294.19;;;23.52;43.99
19259;BME280;9763;48.780;9.212;2023-03-19T09:47:35;98291.66;;;23.80;43.70
19259;BME280;9763;48.780;9.212;2023-03-19T09:51:05;98288.44;;;23.84;43.83
19259;BME280;9763;48.780;9.212;2023-03-19T09:54:34;98291.97;;;24.85;43.43
19259;BME280;9763;48.780;9.212;2023-03-19T09:58:00;98287.06;;;26.52;42.38
19259;BME280;9763;48.780;9.212;2023-03-19T10:01:26;98279.59;;;28.05;40.84
19259;BME280;9763;48.780;9.212;2023-03-19T10:05:02;98275.78;;;29.56;39.70
19259;BME280;9763;48.780;9.212;2023-03-19T10:08:40;98264.63;;;29.53;39.42
19259;BME280;9763;48.780;9.212;2023-03-19T10:12:26;98256.75;;;30.48;38.72
19259;BME280;9763;48.780;9.212;2023-03-19T10:15:55;98262.25;;;31.41;37.49
19259;BME280;9763;48.780;9.212;2023-03-19T10:19:35;98253.16;;;31.82;36.28
19259;BME280;9763;48.780;9.212;2023-03-19T10:23:31;98255.22;;;32.32;36.29
19259;BME280;9763;48.780;9.212;2023-03-19T10:27:06;98241.72;;;32.65;35.10
19259;BME280;9763;48.780;9.212;2023-03-19T10:30:34;98248.31;;;32.86;33.56
19259;BME280;9763;48.780;9.212;2023-03-19T10:34:22;98249.03;;;32.98;33.44
19259;BME280;9763;48.780;9.212;2023-03-19T10:37:52;98241.81;;;32.70;33.79
19259;BME280;9763;48.780;9.212;2023-03-19T10:41:30;98232.06;;;32.69;33.38
19259;BME280;9763;48.780;9.212;2023-03-19T10:45:01;98235.44;;;32.76;32.85
19259;BME280;9763;48.780;9.212;2023-03-19T10:48:27;98235.06;;;33.23;32.62
19259;BME280;9763;48.780;9.212;2023-03-19T10:51:52;98234.34;;;33.28;32.39
19259;BME280;9763;48.780;9.212;2023-03-19T10:55:25;98213.50;;;33.72;31.64
19259;BME280;9763;48.780;9.212;2023-03-19T10:58:57;98217.22;;;34.36;30.79
19259;BME280;9763;48.780;9.212;2023-03-19T11:02:23;98205.84;;;34.39;30.33
19259;BME280;9763;48.780;9.212;2023-03-19T11:06:05;98208.97;;;33.99;29.88
19259;BME280;9763;48.780;9.212;2023-03-19T11:09:33;98213.72;;;33.43;30.27
19259;BME280;9763;48.780;9.212;2023-03-19T11:12:59;98203.31;;;32.97;30.05
19259;BME280;9763;48.780;9.212;2023-03-19T11:16:26;98214.94;;;32.30;29.62
19259;BME280;9763;48.780;9.212;2023-03-19T11:19:52;98203.25;;;31.44;30.17
19259;BME280;9763;48.780;9.212;2023-03-19T11:23:19;98206.66;;;31.05;30.13
19259;BME280;9763;48.780;9.212;2023-03-19T11:26:43;98215.13;;;30.32;30.42
19259;BME280;9763;48.780;9.212;2023-03-19T11:30:17;98211.06;;;29.69;30.65
19259;BME280;9763;48.780;9.212;2023-03-19T11:34:05;98204.97;;;29.01;30.93
19259;BME280;9763;48.780;9.212;2023-03-19T11:37:45;98202.41;;;28.88;31.30
19259;BME280;9763;48.780;9.212;2023-03-19T11:41:26;98201.25;;;29.02;31.29
19259;BME280;9763;48.780;9.212;2023-03-19T11:45:04;98198.34;;;29.22;31.00
19259;BME280;9763;48.780;9.212;2023-03-19T11:48:42;98202.34;;;29.13;31.25
19259;BME280;9763;48.780;9.212;2023-03-19T11:52:15;98194.50;;;28.93;31.28
19259;BME280;9763;48.780;9.212;2023-03-19T11:55:47;98189.78;;;28.63;31.15
19259;BME280;9763;48.780;9.212;2023-03-19T11:59:37;98184.16;;;27.84;31.21
19259;BME280;9763;48.780;9.212;2023-03-19T12:03:53;98184.19;;;27.26;31.44
19259;BME280;9763;48.780;9.212;2023-03-19T12:07:24;98182.81;;;26.90;31.63
19259;BME280;9763;48.780;9.212;2023-03-19T12:11:01;98180.97;;;27.04;32.05
19259;BME280;9763;48.780;9.212;2023-03-19T12:14:37;98177.72;;;27.47;32.09
19259;BME280;9763;48.780;9.212;2023-03-19T12:18:14;98175.41;;;27.57;32.03
19259;BME280;9763;48.780;9.212;2023-03-19T12:21:58;98170.94;;;27.38;31.03
19259;BME280;9763;48.780;9.212;2023-03-19T12:25:32;98172.09;;;27.04;31.72
19259;BME280;9763;48.780;9.212;2023-03-19T12:29:09;98174.00;;;26.50;31.58
19259;BME280;9763;48.780;9.212;2023-03-19T12:32:57;98176.22;;;26.20;31.25
19259;BME280;9763;48.780;9.212;2023-03-19T12:36:28;98173.75;;;26.12;31.94
19259;BME280;9763;48.780;9.212;2023-03-19T12:40:05;98181.31;;;25.89;31.67
19259;BME280;9763;48.780;9.212;2023-03-19T12:43:36;98175.44;;;25.46;31.97
19259;BME280;9763;48.780;9.212;2023-03-19T12:47:04;98170.34;;;25.17;31.42
19259;BME280;9763;48.780;9.212;2023-03-19T12:50:33;98168.50;;;25.10;32.02
19259;BME280;9763;48.780;9.212;2023-03-19T12:54:02;98172.75;;;25.05;32.26
19259;BME280;9763;48.780;9.212;2023-03-19T12:57:33;98159.56;;;24.97;32.06
19259;BME280;9763;48.780;9.212;2023-03-19T13:01:05;98166.31;;;24.65;32.37
19259;BME280;9763;48.780;9.212;2023-03-19T13:04:37;98169.41;;;24.19;32.26
19259;BME280;9763;48.780;9.212;2023-03-19T13:08:09;98162.34;;;23.69;32.69
19259;BME280;9763;48.780;9.212;2023-03-19T13:11:42;98177.41;;;23.26;33.13
19259;BME280;9763;48.780;9.212;2023-03-19T13:15:10;98188.28;;;22.72;33.96
19259;BME280;9763;48.780;9.212;2023-03-19T13:18:42;98208.25;;;22.16;34.77
19259;BME280;9763;48.780;9.212;2023-03-19T13:22:11;98207.63;;;21.52;35.75
19259;BME280;9763;48.780;9.212;2023-03-19T13:25:41;98208.38;;;20.74;37.05
19259;BME280;9763;48.780;9.212;2023-03-19T13:29:12;98205.22;;;20.30;37.60
19259;BME280;9763;48.780;9.212;2023-03-19T13:32:42;98211.34;;;20.06;37.69
19259;BME280;9763;48.780;9.212;2023-03-19T13:36:11;98213.47;;;19.87;38.21
19259;BME280;9763;48.780;9.212;2023-03-19T13:39:36;98206.88;;;19.91;38.64
19259;BME280;9763;48.780;9.212;2023-03-19T13:43:02;98203.75;;;20.11;38.67
19259;BME280;9763;48.780;9.212;2023-03-19T13:46:39;98206.41;;;20.28;38.33
19259;BME280;9763;48.780;9.212;2023-03-19T13:50:27;98203.91;;;20.34;38.72
19259;BME280;9763;48.780;9.212;2023-03-19T13:53:54;98204.44;;;20.38;39.02
19259;BME280;9763;48.780;9.212;2023-03-19T13:57:34;98203.78;;;20.36;38.33
19259;BME280;9763;48.780;9.212;2023-03-19T14:01:00;98209.22;;;20.26;38.92
19259;BME280;9763;48.780;9.212;2023-03-19T14:04:25;98203.56;;;20.21;39.08
19259;BME280;9763;48.780;9.212;2023-03-19T14:07:53;98208.56;;;20.16;39.15
19259;BME280;9763;48.780;9.212;2023-03-19T14:11:22;98218.81;;;20.03;39.58
19259;BME280;9763;48.780;9.212;2023-03-19T14:14:48;98212.50;;;19.96;39.58
19259;BME280;9763;48.780;9.212;2023-03-19T14:18:17;98202.88;;;19.95;39.62
19259;BME280;9763;48.780;9.212;2023-03-19T14:22:00;98203.38;;;20.06;39.94
19259;BME280;9763;48.780;9.212;2023-03-19T14:29:34;98198.28;;;20.54;39.92
19259;BME280;9763;48.780;9.212;2023-03-19T14:33:01;98191.78;;;20.72;39.18
19259;BME280;9763;48.780;9.212;2023-03-19T14:36:27;98187.47;;;20.88;39.65
19259;BME280;9763;48.780;9.212;2023-03-19T14:39:58;98196.72;;;21.00;39.37
19259;BME280;9763;48.780;9.212;2023-03-19T14:43:46;98198.16;;;21.10;39.66
19259;BME280;9763;48.780;9.212;2023-03-19T14:47:25;98198.81;;;21.12;39.78
19259;BME280;9763;48.780;9.212;2023-03-19T14:54:51;98200.34;;;20.99;39.78
19259;BME280;9763;48.780;9.212;2023-03-19T14:58:17;98197.06;;;20.89;40.21
19259;BME280;9763;48.780;9.212;2023-03-19T15:01:48;98213.31;;;20.77;39.91
19259;BME280;9763;48.780;9.212;2023-03-19T15:05:19;98212.22;;;20.64;40.50
19259;BME280;9763;48.780;9.212;2023-03-19T15:08:44;98203.09;;;20.42;41.05
19259;BME280;9763;48.780;9.212;2023-03-19T15:12:38;98209.34;;;20.17;40.95
19259;BME280;9763;48.780;9.212;2023-03-19T15:16:21;98213.63;;;19.93;41.01
19259;BME280;9763;48.780;9.212;2023-03-19T15:19:49;98219.41;;;19.81;41.13
19259;BME280;9763;48.780;9.212;2023-03-19T15:23:18;98220.53;;;19.70;41.30
19259;BME280;9763;48.780;9.212;2023-03-19T15:26:49;98215.09;;;19.71;41.43
19259;BME280;9763;48.780;9.212;2023-03-19T15:30:22;98218.41;;;19.73;41.30
19259;BME280;9763;48.780;9.212;2023-03-19T15:33:50;98227.34;;;19.72;41.48
19259;BME280;9763;48.780;9.212;2023-03-19T15:37:15;98235.59;;;19.69;41.59
19259;BME280;9763;48.780;9.212;2023-03-19T15:40:41;98229.66;;;19.67;41.75
19259;BME280;9763;48.780;9.212;2023-03-19T15:44:06;98230.28;;;19.61;41.40
19259;BME280;9763;48.780;9.212;2023-03-19T15:47:34;98230.13;;;19.55;41.61
19259;BME280;9763;48.780;9.212;2023-03-19T15:51:00;98236.16;;;19.47;41.70
19259;BME280;9763;48.780;9.212;2023-03-19T15:54:25;98241.75;;;19.36;41.92
19259;BME280;9763;48.780;9.212;2023-03-19T15:57:51;98233.91;;;19.18;41.71
19259;BME280;9763;48.780;9.212;2023-03-19T16:01:17;98240.94;;;19.01;41.83
19259;BME280;9763;48.780;9.212;2023-03-19T16:04:44;98246.09;;;18.85;42.72
19259;BME280;9763;48.780;9.212;2023-03-19T16:08:29;98253.56;;;18.64;42.27
19259;BME280;9763;48.780;9.212;2023-03-19T16:11:53;98259.38;;;18.50;42.53
19259;BME280;9763;48.780;9.212;2023-03-19T16:15:24;98283.19;;;18.32;43.53
19259;BME280;9763;48.780;9.212;2023-03-19T16:18:51;98291.25;;;18.13;44.03
19259;BME280;9763;48.780;9.212;2023-03-19T16:22:19;98310.84;;;17.92;43.96
19259;BME280;9763;48.780;9.212;2023-03-19T16:25:44;98320.88;;;17.61;44.59
19259;BME280;9763;48.780;9.212;2023-03-19T16:29:19;98319.72;;;17.27;44.94
19259;BME280;9763;48.780;9.212;2023-03-19T16:32:44;98325.75;;;17.10;45.22
19259;BME280;9763;48.780;9.212;2023-03-19T16:36:11;98333.97;;;16.97;45.41
19259;BME280;9763;48.780;9.212;2023-03-19T16:39:36;98337.88;;;16.83;45.32
19259;BME280;9763;48.780;9.212;2023-03-19T16:43:17;98351.91;;;16.65;46.35
19259;BME280;9763;48.780;9.212;2023-03-19T16:46:42;98350.88;;;16.46;48.47
19259;BME280;9763;48.780;9.212;2023-03-19T16:50:08;98357.69;;;16.30;51.01
19259;BME280;9763;48.780;9.212;2023-03-19T16:53:32;98353.50;;;16.17;53.96
19259;BME280;9763;48.780;9.212;2023-03-19T16:56:56;98356.41;;;16.14;56.29
19259;BME280;9763;48.780;9.212;2023-03-19T17:00:21;98349.75;;;16.10;57.82
19259;BME280;9763;48.780;9.212;2023-03-19T17:03:47;98350.69;;;16.00;58.36
19259;BME280;9763;48.780;9.212;2023-03-19T17:07:12;98356.06;;;15.89;59.44
19259;BME280;9763;48.780;9.212;2023-03-19T17:10:39;98357.28;;;15.84;61.05
19259;BME280;9763;48.780;9.212;2023-03-19T17:14:06;98365.47;;;15.81;61.40
19259;BME280;9763;48.780;9.212;2023-03-19T17:17:35;98366.44;;;15.80;62.07
19259;BME280;9763;48.780;9.212;2023-03-19T17:21:03;98375.16;;;15.81;63.02
19259;BME280;9763;48.780;9.212;2023-03-19T17:24:31;98376.13;;;15.80;63.26
19259;BME280;9763;48.780;9.212;2023-03-19T17:27:56;98371.00;;;15.78;63.59
19259;BME280;9763;48.780;9.212;2023-03-19T17:31:26;98380.69;;;15.78;64.94
19259;BME280;9763;48.780;9.212;2023-03-19T17:34:50;98387.63;;;15.79;64.56
19259;BME280;9763;48.780;9.212;2023-03-19T17:38:17;98383.56;;;15.65;65.49
19259;BME280;9763;48.780;9.212;2023-03-19T17:41:43;98376.69;;;15.53;65.62
19259;BME280;9763;48.780;9.212;2023-03-19T17:45:13;98410.66;;;15.56;66.40
19259;BME280;9763;48.780;9.212;2023-03-19T17:48:37;98413.88;;;15.48;66.22
19259;BME280;9763;48.780;9.212;2023-03-19T17:52:01;98411.91;;;15.41;66.71
19259;BME280;9763;48.780;9.212;2023-03-19T17:55:27;98421.72;;;15.39;67.15
19259;BME280;9763;48.780;9.212;2023-03-19T17:58:52;98416.00;;;15.34;67.31
19259;BME280;9763;48.780;9.212;2023-03-19T18:02:23;98412.13;;;15.28;67.50
19259;BME280;9763;48.780;9.212;2023-03-19T18:05:48;98422.75;;;15.27;67.61
19259;BME280;9763;48.780;9.212;2023-03-19T18:09:18;98423.72;;;15.26;68.47
19259;BME280;9763;48.780;9.212;2023-03-19T18:12:43;98419.41;;;15.25;68.64
19259;BME280;9763;48.780;9.212;2023-03-19T18:16:18;98417.03;;;15.22;68.99
19259;BME280;9763;48.780;9.212;2023-03-19T18:19:45;98417.88;;;15.22;69.01
19259;BME280;9763;48.780;9.212;2023-03-19T18:23:11;98417.56;;;15.16;69.15
19259;BME280;9763;48.780;9.212;2023-03-19T18:26:35;98419.88;;;15.09;69.43
19259;BME280;9763;48.780;9.212;2023-03-19T18:29:59;98423.00;;;15.03;69.26
19259;BME280;9763;48.780;9.212;2023-03-19T18:33:27;98422.41;;;14.99;70.03
19259;BME280;9763;48.780;9.212;2023-03-19T18:36:52;98421.72;;;14.97;70.24
19259;BME280;9763;48.780;9.212;2023-03-19T18:40:18;98430.59;;;14.96;70.30
19259;BME280;9763;48.780;9.212;2023-03-19T18:43:42;98430.94;;;14.92;70.68
19259;BME280;9763;48.780;9.212;2023-03-19T18:47:08;98429.03;;;14.94;70.85